Time;durP1;ratioP1;P1;durP2;ratioP2;P2;SDS_P1;SDS_P2;PMS_P1;PMS_P2;Temp;Humidity;BMP_temperature;BMP_pressure;BME280_temperature;BME280_humidity;BME280_pressure;Samples;Min_cycle;Max_cycle;Signal;HPM_P1;HPM_P2
2021/05/21 00:00:04;;;;;;;2.83;0.98;;;;;;;15.74;45.88;99098.19;4973375;28;20051;-83
2021/05/21 00:02:30;;;;;;;2.30;0.90;;;;;;;15.74;46.04;99092.88;4984889;28;20475;-82
2021/05/21 00:04:57;;;;;;;1.40;0.90;;;;;;;15.72;45.98;99091.34;4992453;28;20046;-83
2021/05/21 00:07:23;;;;;;;1.00;0.93;;;;;;;15.71;46.13;99090.53;4992430;28;20492;-83
2021/05/21 00:09:50;;;;;;;1.00;0.88;;;;;;;15.71;46.21;99089.66;4991961;28;20835;-83
2021/05/21 00:12:17;;;;;;;1.73;1.10;;;;;;;15.70;46.26;99078.19;4992362;28;20054;-83
2021/05/21 00:14:44;;;;;;;0.85;0.82;;;;;;;15.70;46.21;99080.84;4994068;28;20109;-84
2021/05/21 00:17:10;;;;;;;1.98;1.00;;;;;;;15.70;46.29;99064.94;4992625;28;20058;-83
2021/05/21 00:19:37;;;;;;;3.42;1.15;;;;;;;15.68;46.44;99052.78;4978186;28;20059;-83
2021/05/21 00:22:03;;;;;;;1.65;1.20;;;;;;;15.68;46.53;99048.34;4991112;28;20503;-83
2021/05/21 00:24:30;;;;;;;2.13;1.20;;;;;;;15.68;46.52;99043.03;4992421;28;20050;-83
2021/05/21 00:26:56;;;;;;;1.73;1.10;;;;;;;15.67;46.38;99044.00;4992753;28;20058;-83
2021/05/21 00:29:23;;;;;;;2.78;1.17;;;;;;;15.67;46.49;99035.19;4995983;28;20054;-82
2021/05/21 00:31:49;;;;;;;1.10;0.95;;;;;;;15.65;46.62;99024.72;4995973;28;20524;-83
2021/05/21 00:34:16;;;;;;;3.83;1.20;;;;;;;15.64;46.67;99025.72;4995804;28;20527;-83
2021/05/21 00:36:43;;;;;;;4.03;1.15;;;;;;;15.62;46.59;99017.03;4993219;28;20504;-82
2021/05/21 00:39:09;;;;;;;1.23;0.90;;;;;;;15.60;46.77;99005.75;4995744;28;20050;-82
2021/05/21 00:41:36;;;;;;;2.40;1.10;;;;;;;15.59;46.93;99012.03;4994683;28;20109;-83
2021/05/21 00:44:03;;;;;;;1.17;0.98;;;;;;;15.57;46.75;98998.03;4994444;28;20054;-82
2021/05/21 00:46:29;;;;;;;2.47;1.17;;;;;;;15.53;46.86;98994.00;4995920;28;20046;-83
2021/05/21 00:48:56;;;;;;;2.58;1.10;;;;;;;15.50;46.83;98981.84;4995832;28;20054;-82
2021/05/21 00:51:22;;;;;;;2.20;1.20;;;;;;;15.46;46.96;98980.44;4993933;28;20064;-82
2021/05/21 00:53:51;;;;;;;1.73;0.90;;;;;;;15.40;47.37;98981.84;4995462;28;20054;-82
2021/05/21 00:56:17;;;;;;;3.75;1.20;;;;;;;15.37;47.16;98968.88;4988782;28;20452;-83
2021/05/21 00:58:44;;;;;;;3.63;0.95;;;;;;;15.34;47.30;98955.88;4975003;28;20059;-83
2021/05/21 01:01:15;;;;;;;2.63;0.85;;;;;;;15.30;47.37;98960.63;4976199;28;20053;-82
2021/05/21 01:03:41;;;;;;;1.98;1.20;;;;;;;15.25;47.35;98949.59;4974508;28;20051;-83
2021/05/21 01:06:08;;;;;;;2.55;1.00;;;;;;;15.22;47.32;98956.00;4975954;28;20057;-82
2021/05/21 01:08:35;;;;;;;2.08;1.00;;;;;;;15.18;47.42;98935.22;4977154;28;20055;-82
2021/05/21 01:11:04;;;;;;;1.60;0.90;;;;;;;15.15;47.61;98936.34;4975890;28;20050;-82
2021/05/21 01:13:32;;;;;;;1.70;1.10;;;;;;;15.12;47.70;98931.31;4974549;28;20530;-83
2021/05/21 01:15:59;;;;;;;4.40;0.98;;;;;;;15.09;47.66;98923.63;4975526;28;20055;-82
2021/05/21 01:18:26;;;;;;;1.45;1.10;;;;;;;15.07;47.80;98928.22;4975803;28;20066;-83
2021/05/21 01:20:53;;;;;;;1.70;1.00;;;;;;;15.04;47.85;98923.19;4975798;28;20050;-82
2021/05/21 01:23:19;;;;;;;3.08;1.10;;;;;;;15.01;48.02;98908.41;4977266;28;20137;-82
2021/05/21 01:25:46;;;;;;;1.80;1.00;;;;;;;14.97;47.99;98907.84;4980972;28;20116;-82
2021/05/21 01:28:15;;;;;;;3.53;1.00;;;;;;;14.95;48.16;98903.66;4993850;28;20108;-82
2021/05/21 01:30:41;;;;;;;1.52;0.80;;;;;;;14.91;48.28;98905.75;4994887;28;20050;-82
2021/05/21 01:33:11;;;;;;;3.38;1.10;;;;;;;14.87;48.34;98906.97;4993946;28;20054;-82
2021/05/21 01:35:42;;;;;;;3.47;0.80;;;;;;;14.84;48.44;98896.69;4993635;28;20050;-82
2021/05/21 01:38:11;;;;;;;3.03;1.33;;;;;;;14.81;48.58;98891.66;4994650;28;20058;-83
2021/05/21 01:40:38;;;;;;;1.30;0.73;;;;;;;14.78;48.48;98881.31;4994906;28;20050;-83
2021/05/21 01:43:09;;;;;;;0.90;0.70;;;;;;;14.75;48.46;98884.19;4982523;28;20079;-82
2021/05/21 01:45:38;;;;;;;1.80;0.90;;;;;;;14.71;48.77;98892.44;4975275;28;20050;-82
2021/05/21 01:48:05;;;;;;;6.75;0.93;;;;;;;14.70;48.70;98884.63;4975579;28;20066;-82
2021/05/21 01:50:32;;;;;;;1.10;0.70;;;;;;;14.67;48.78;98882.22;4981016;28;20102;-82
2021/05/21 01:52:58;;;;;;;1.73;1.00;;;;;;;14.66;48.88;98873.44;4994709;28;20427;-82
2021/05/21 01:55:25;;;;;;;2.25;0.90;;;;;;;14.65;48.95;98869.13;4994383;28;20046;-82
2021/05/21 01:57:52;;;;;;;1.95;0.80;;;;;;;14.64;48.95;98872.75;4978429;28;20051;-83
2021/05/21 02:00:18;;;;;;;3.10;1.10;;;;;;;14.64;48.93;98870.09;4973624;28;20055;-83
2021/05/21 02:02:45;;;;;;;3.33;1.17;;;;;;;14.63;49.20;98859.63;4974852;28;20058;-82
2021/05/21 02:05:12;;;;;;;1.73;0.93;;;;;;;14.61;49.07;98858.94;4975074;28;20527;-82
2021/05/21 02:07:38;;;;;;;1.50;0.88;;;;;;;14.57;49.36;98856.56;4973609;28;20050;-82
2021/05/21 02:10:09;;;;;;;6.43;0.85;;;;;;;14.55;49.39;98852.38;4975615;28;20421;-84
2021/05/21 02:12:36;;;;;;;2.00;0.88;;;;;;;14.53;49.22;98844.56;4975936;28;20066;-83
2021/05/21 02:15:07;;;;;;;2.83;1.08;;;;;;;14.50;49.49;98836.88;4977445;28;20055;-83
2021/05/21 02:17:34;;;;;;;2.55;1.00;;;;;;;14.48;49.34;98838.84;4976100;28;20050;-83
2021/05/21 02:20:03;;;;;;;1.38;0.90;;;;;;;14.45;49.54;98831.16;4975017;28;20063;-83
2021/05/21 02:22:31;;;;;;;0.80;0.80;;;;;;;14.43;49.45;98828.66;4973177;28;20145;-83
2021/05/21 02:25:04;;;;;;;4.35;0.98;;;;;;;14.41;49.52;98821.81;4973182;28;20055;-82
2021/05/21 02:27:31;;;;;;;1.85;0.88;;;;;;;14.40;49.70;98813.06;4976201;28;20498;-83
2021/05/21 02:29:57;;;;;;;3.20;1.02;;;;;;;14.37;49.56;98807.19;4976200;28;20054;-82
2021/05/21 02:32:24;;;;;;;2.88;1.00;;;;;;;14.34;49.54;98805.63;4977365;28;20065;-82
2021/05/21 02:34:51;;;;;;;2.42;0.73;;;;;;;14.32;49.63;98803.13;4975644;28;20047;-82
2021/05/21 02:37:18;;;;;;;0.88;0.80;;;;;;;14.31;49.78;98795.31;4976158;28;20409;-82
2021/05/21 02:39:45;;;;;;;2.08;0.88;;;;;;;14.28;49.86;98795.59;4975106;28;20047;-83
2021/05/21 02:42:11;;;;;;;1.45;0.88;;;;;;;14.25;49.68;98790.56;4974567;28;20054;-82
2021/05/21 02:44:38;;;;;;;2.92;0.95;;;;;;;14.21;49.86;98784.72;4974759;28;20057;-83
2021/05/21 02:47:05;;;;;;;1.73;0.95;;;;;;;14.19;49.94;98776.06;4976317;28;20054;-83
2021/05/21 02:49:34;;;;;;;1.48;1.10;;;;;;;14.16;50.07;98779.81;4955026;28;20058;-82
2021/05/21 02:52:00;;;;;;;2.33;0.90;;;;;;;14.14;50.13;98773.84;4956115;28;20055;-82
2021/05/21 02:54:27;;;;;;;1.20;0.90;;;;;;;14.13;50.27;98766.03;4955421;28;20521;-82
2021/05/21 02:56:54;;;;;;;2.65;0.90;;;;;;;14.11;50.35;98767.97;4973209;28;20038;-82
2021/05/21 02:59:20;;;;;;;0.68;0.63;;;;;;;14.09;50.39;98773.38;4974674;28;20063;-83
2021/05/21 03:01:47;;;;;;;1.77;0.77;;;;;;;14.07;50.44;98762.97;4973118;28;20050;-83
2021/05/21 03:04:13;;;;;;;2.38;1.10;;;;;;;14.05;50.41;98758.75;4972568;28;20496;-82
2021/05/21 03:06:40;;;;;;;5.13;0.95;;;;;;;14.03;50.52;98752.78;4973583;28;20054;-83
2021/05/21 03:09:07;;;;;;;3.60;1.00;;;;;;;14.01;50.53;98749.41;4973765;28;20054;-82
2021/05/21 03:11:33;;;;;;;1.60;0.75;;;;;;;14.00;50.61;98753.03;4973506;28;20058;-82
2021/05/21 03:14:00;;;;;;;2.28;0.90;;;;;;;13.98;50.57;98747.88;4973468;28;20521;-83
2021/05/21 03:16:26;;;;;;;1.67;1.00;;;;;;;13.95;50.70;98742.88;4973618;28;20054;-83
2021/05/21 03:18:53;;;;;;;2.92;1.20;;;;;;;13.94;50.92;98736.72;4973602;28;20501;-83
2021/05/21 03:21:20;;;;;;;2.45;0.93;;;;;;;13.93;50.80;98743.00;4973085;28;20054;-83
2021/05/21 03:23:46;;;;;;;1.52;1.10;;;;;;;13.91;50.74;98741.47;4973605;28;20076;-82
2021/05/21 03:26:13;;;;;;;3.42;1.00;;;;;;;13.89;50.99;98746.88;4973919;28;20061;-82
2021/05/21 03:28:41;;;;;;;2.47;0.90;;;;;;;13.88;50.95;98736.44;4973184;28;20053;-82
2021/05/21 03:31:08;;;;;;;2.20;0.93;;;;;;;13.86;51.05;98736.56;4973910;28;20055;-83
2021/05/21 03:33:35;;;;;;;1.50;0.82;;;;;;;13.84;51.17;98735.88;4973955;28;20054;-82
2021/05/21 03:36:04;;;;;;;2.00;1.10;;;;;;;13.80;51.48;98727.34;4974349;28;20058;-82
2021/05/21 03:38:31;;;;;;;1.33;0.90;;;;;;;13.78;51.42;98731.09;4973395;28;20058;-82
2021/05/21 03:40:58;;;;;;;2.03;0.95;;;;;;;13.76;51.45;98717.19;4973686;28;20055;-83
2021/05/21 03:43:24;;;;;;;2.13;0.85;;;;;;;13.73;51.61;98723.56;4973616;28;20425;-83
2021/05/21 03:45:51;;;;;;;2.22;0.90;;;;;;;13.72;51.63;98707.84;4974913;28;20054;-83
2021/05/21 03:48:18;;;;;;;3.20;1.00;;;;;;;13.70;51.68;98712.41;4972366;28;20054;-83
2021/05/21 03:50:45;;;;;;;2.75;0.90;;;;;;;13.70;51.73;98707.97;4973577;28;20050;-83
2021/05/21 03:53:11;;;;;;;1.92;0.90;;;;;;;13.68;52.08;98713.38;4973427;28;20050;-83
2021/05/21 03:55:38;;;;;;;1.50;0.90;;;;;;;13.68;51.84;98710.75;4973215;28;20587;-82
2021/05/21 03:58:04;;;;;;;1.90;0.80;;;;;;;13.68;52.01;98715.19;4973607;28;20054;-82
2021/05/21 04:00:31;;;;;;;2.63;1.00;;;;;;;13.68;52.10;98708.09;4973200;28;20077;-82
2021/05/21 04:02:58;;;;;;;3.33;0.90;;;;;;;13.71;52.02;98708.81;4991914;28;20054;-82
2021/05/21 04:05:25;;;;;;;2.10;1.00;;;;;;;13.71;52.06;98712.28;4992643;28;20053;-82
2021/05/21 04:07:51;;;;;;;2.85;0.90;;;;;;;13.74;52.15;98706.72;4992909;28;20069;-83
2021/05/21 04:10:18;;;;;;;2.75;0.95;;;;;;;13.75;52.33;98697.00;4991152;28;20046;-82
2021/05/21 04:12:45;;;;;;;3.05;1.00;;;;;;;13.77;52.34;98705.63;4990928;28;20054;-84
2021/05/21 04:15:12;;;;;;;4.03;1.10;;;;;;;13.76;52.29;98691.56;4990869;28;20057;-83
2021/05/21 04:17:39;;;;;;;1.08;0.90;;;;;;;13.81;52.28;98696.44;4989811;28;20065;-84
2021/05/21 04:20:06;;;;;;;4.75;0.88;;;;;;;13.84;52.53;98687.41;4979068;28;20062;-83
2021/05/21 04:22:33;;;;;;;0.93;0.70;;;;;;;13.86;52.36;98686.31;5001904;22;20141;-84
2021/05/21 04:25:00;;;;;;;2.05;0.90;;;;;;;13.90;52.56;98692.16;4992213;28;20512;-83
2021/05/21 04:27:29;;;;;;;1.77;0.85;;;;;;;13.92;52.45;98685.78;4991065;28;20054;-84
2021/05/21 04:29:58;;;;;;;1.83;0.82;;;;;;;13.93;53.18;98690.09;4990681;28;20073;-84
2021/05/21 04:32:25;;;;;;;4.43;1.13;;;;;;;13.98;52.44;98683.56;4992243;28;20054;-84
2021/05/21 04:35:00;;;;;;;1.15;0.90;;;;;;;14.00;53.04;98685.09;4992502;28;20128;-84
2021/05/21 04:37:38;;;;;;;2.55;0.98;;;;;;;14.02;53.35;98682.31;4992133;28;20053;-84
2021/05/21 04:40:32;;;;;;;2.17;0.80;;;;;;;14.10;52.88;98678.97;4990634;28;20419;-84
2021/05/21 04:43:01;;;;;;;3.45;1.00;;;;;;;14.13;52.72;98673.41;4992229;28;20050;-84
2021/05/21 04:45:38;;;;;;;3.00;1.05;;;;;;;14.17;52.95;98672.16;4990522;28;20142;-84
2021/05/21 04:48:09;;;;;;;3.08;0.90;;;;;;;14.21;52.74;98662.97;4992244;28;20093;-84
2021/05/21 04:50:37;;;;;;;2.28;0.82;;;;;;;14.25;52.41;98667.03;4991813;28;20515;-85
2021/05/21 04:53:03;;;;;;;1.58;0.98;;;;;;;14.30;52.42;98656.00;5009366;28;20092;-84
2021/05/21 04:55:30;;;;;;;2.67;0.98;;;;;;;14.32;52.45;98659.34;5011416;28;20050;-84
2021/05/21 04:57:58;;;;;;;3.50;1.27;;;;;;;14.35;52.40;98659.06;5010474;28;20049;-84
2021/05/21 05:00:25;;;;;;;3.10;0.73;;;;;;;14.38;52.26;98658.78;5010183;28;20050;-84
2021/05/21 05:02:52;;;;;;;3.08;1.00;;;;;;;14.42;52.56;98661.97;5010100;28;20506;-84
2021/05/21 05:05:22;;;;;;;3.55;1.00;;;;;;;14.43;52.47;98659.19;5010998;28;20057;-84
2021/05/21 05:07:49;;;;;;;2.53;1.10;;;;;;;14.47;52.38;98657.13;5010658;28;20064;-83
2021/05/21 05:10:16;;;;;;;2.05;1.38;;;;;;;14.50;52.33;98654.19;4991230;28;20500;-82
2021/05/21 05:12:42;;;;;;;2.20;0.95;;;;;;;14.52;52.47;98648.75;4990613;28;20058;-84
2021/05/21 05:15:09;;;;;;;2.05;0.90;;;;;;;14.54;52.16;98658.22;4995232;28;20062;-84
2021/05/21 05:17:36;;;;;;;2.47;0.90;;;;;;;14.56;52.42;98647.50;4995021;28;20057;-85
2021/05/21 05:20:04;;;;;;;4.53;1.15;;;;;;;14.59;52.53;98650.69;4995239;28;20058;-85
2021/05/21 05:22:30;;;;;;;2.20;0.88;;;;;;;14.62;52.40;98654.03;4994916;28;20064;-85
2021/05/21 05:24:58;;;;;;;2.65;1.08;;;;;;;14.65;52.00;98665.19;4994993;28;20050;-85
2021/05/21 05:27:25;;;;;;;2.97;1.00;;;;;;;14.67;52.25;98655.28;5000903;28;20046;-85
2021/05/21 05:29:54;;;;;;;4.88;1.05;;;;;;;14.69;52.07;98669.22;5015096;28;20054;-85
2021/05/21 05:32:21;;;;;;;4.35;1.10;;;;;;;14.71;52.26;98663.78;5013960;28;20065;-85
2021/05/21 05:34:53;;;;;;;3.00;1.30;;;;;;;14.73;52.30;98678.56;5015222;28;20169;-85
2021/05/21 05:37:20;;;;;;;2.55;1.00;;;;;;;14.75;52.56;98670.47;5014529;28;20046;-85
2021/05/21 05:39:46;;;;;;;1.98;0.90;;;;;;;14.76;52.31;98666.03;5013577;28;20137;-85
2021/05/21 05:42:13;;;;;;;3.03;0.80;;;;;;;14.78;52.69;98666.72;5014771;28;20065;-85
2021/05/21 05:44:40;;;;;;;2.35;1.02;;;;;;;14.80;52.57;98672.75;5015967;28;20057;-85
2021/05/21 05:47:06;;;;;;;2.65;1.08;;;;;;;14.80;52.56;98670.91;5000614;28;20054;-85
2021/05/21 05:49:33;;;;;;;3.25;1.00;;;;;;;14.81;52.70;98656.69;5004818;28;20063;-85
2021/05/21 05:51:59;;;;;;;2.03;1.20;;;;;;;14.84;52.62;98647.63;5014689;28;20050;-85
2021/05/21 05:54:27;;;;;;;2.42;1.05;;;;;;;14.85;52.83;98654.59;5014946;28;20058;-85
2021/05/21 05:56:54;;;;;;;4.25;1.27;;;;;;;14.89;53.63;98649.84;5014945;28;20049;-85
2021/05/21 05:59:21;;;;;;;1.52;1.00;;;;;;;14.94;53.58;98647.59;5015121;28;20069;-85
2021/05/21 06:01:47;;;;;;;3.70;1.25;;;;;;;15.01;53.33;98642.56;5013294;28;20495;-85
2021/05/21 06:04:14;;;;;;;5.50;1.20;;;;;;;15.08;53.50;98638.34;5013316;28;20057;-85
2021/05/21 06:06:41;;;;;;;2.45;1.20;;;;;;;15.15;53.53;98634.16;5013128;28;20510;-85
2021/05/21 06:09:09;;;;;;;1.42;1.00;;;;;;;15.21;53.87;98633.56;5014361;28;20419;-86
2021/05/21 06:11:36;;;;;;;4.05;1.45;;;;;;;15.28;53.79;98633.81;5014910;28;20069;-85
2021/05/21 06:14:04;;;;;;;3.67;1.00;;;;;;;15.35;53.74;98628.75;5015119;28;20050;-86
2021/05/21 06:16:31;;;;;;;3.33;1.30;;;;;;;15.39;53.60;98614.22;5014242;28;20050;-86
2021/05/21 06:18:58;;;;;;;3.35;1.10;;;;;;;15.46;53.70;98617.13;5014367;28;20419;-86
2021/05/21 06:21:24;;;;;;;2.25;1.02;;;;;;;15.49;53.33;98612.38;5013374;28;20058;-86
2021/05/21 06:23:51;;;;;;;3.05;0.95;;;;;;;15.54;53.48;98619.03;5013605;28;20065;-86
2021/05/21 06:27:14;;;;;;;3.22;1.45;;;;;;;15.56;53.59;98609.97;5012850;28;20495;-86
2021/05/21 06:29:30;;;;;;;2.90;1.02;;;;;;;15.59;53.53;98607.00;5013525;28;20052;-85
2021/05/21 06:31:57;;;;;;;2.25;1.20;;;;;;;15.63;53.62;98607.56;5012541;28;20054;-86
2021/05/21 06:34:23;;;;;;;5.80;1.50;;;;;;;15.67;53.58;98600.13;5012515;28;20392;-86
2021/05/21 06:36:50;;;;;;;2.15;1.38;;;;;;;15.70;53.43;98597.19;5013412;28;20487;-86
2021/05/21 06:39:17;;;;;;;5.82;1.70;;;;;;;15.73;53.32;98604.81;4995387;28;20054;-85
2021/05/21 06:41:44;;;;;;;1.58;1.23;;;;;;;15.75;53.02;98595.72;4993461;28;20050;-86
2021/05/21 06:44:10;;;;;;;4.53;1.45;;;;;;;15.78;53.16;98591.97;4993579;28;20427;-86
2021/05/21 06:46:37;;;;;;;5.10;1.52;;;;;;;15.81;53.10;98596.97;4994098;28;20068;-86
2021/05/21 06:49:10;;;;;;;3.20;1.40;;;;;;;15.83;53.27;98584.38;4993855;28;20058;-86
2021/05/21 06:51:38;;;;;;;2.97;1.33;;;;;;;15.87;52.93;98585.75;4992368;28;20057;-86
2021/05/21 06:54:05;;;;;;;5.15;1.60;;;;;;;15.93;53.09;98592.28;4991771;28;20066;-86
2021/05/21 06:56:35;;;;;;;4.20;1.55;;;;;;;15.95;53.20;98595.63;4992250;28;20050;-86
2021/05/21 06:59:05;;;;;;;6.90;1.55;;;;;;;15.99;53.19;98594.34;4991684;28;20058;-86
2021/05/21 07:01:31;;;;;;;3.00;1.40;;;;;;;16.03;53.15;98594.88;4993367;28;20050;-86
2021/05/21 07:03:58;;;;;;;10.98;1.65;;;;;;;16.06;53.01;98591.09;4991490;28;20054;-85
2021/05/21 07:06:25;;;;;;;5.80;1.30;;;;;;;16.08;53.04;98586.47;4991845;28;20050;-86
2021/05/21 07:08:52;;;;;;;4.15;1.52;;;;;;;16.09;52.67;98588.13;4991709;28;20058;-86
2021/05/21 07:11:18;;;;;;;8.00;1.42;;;;;;;16.12;52.69;98590.50;5001254;28;20054;-86
2021/05/21 07:13:45;;;;;;;4.50;1.40;;;;;;;16.11;52.77;98581.69;5012687;28;20060;-86
2021/05/21 07:16:12;;;;;;;4.20;1.35;;;;;;;16.13;52.46;98571.75;5012687;28;20451;-86
2021/05/21 07:18:38;;;;;;;5.82;1.40;;;;;;;16.17;52.92;98574.94;5011393;28;20419;-86
2021/05/21 07:21:05;;;;;;;3.85;1.50;;;;;;;16.21;53.25;98565.69;5011679;28;20482;-86
2021/05/21 07:23:32;;;;;;;4.05;1.33;;;;;;;16.28;53.51;98569.41;5011283;28;20057;-86
2021/05/21 07:25:58;;;;;;;2.90;1.40;;;;;;;16.38;53.83;98565.81;5011473;28;20057;-86
2021/05/21 07:28:25;;;;;;;2.55;1.40;;;;;;;16.50;53.40;98564.56;5009818;28;20172;-85
2021/05/21 07:30:52;;;;;;;6.35;1.63;;;;;;;16.61;52.83;98559.97;5011148;28;20093;-86
2021/05/21 07:33:19;;;;;;;6.63;1.70;;;;;;;16.68;52.75;98555.72;5012773;28;20538;-86
2021/05/21 07:35:45;;;;;;;3.08;1.27;;;;;;;16.71;52.19;98555.38;5010812;28;20053;-85
2021/05/21 07:38:12;;;;;;;5.28;1.20;;;;;;;16.71;51.61;98542.09;5011111;28;20495;-86
2021/05/21 07:40:39;;;;;;;6.82;1.42;;;;;;;16.71;51.56;98555.38;5012133;28;20073;-85
2021/05/21 07:43:06;;;;;;;4.68;1.35;;;;;;;16.71;51.75;98563.34;4988195;28;20074;-86
2021/05/21 07:45:33;;;;;;;14.38;2.10;;;;;;;16.70;50.18;98579.47;4990600;28;20061;-86
2021/05/21 07:47:59;;;;;;;8.43;1.52;;;;;;;16.63;49.78;98572.13;4991281;28;20054;-85
2021/05/21 07:50:26;;;;;;;8.40;1.75;;;;;;;16.52;49.65;98583.84;4994758;28;20062;-86
2021/05/21 07:52:53;;;;;;;10.98;2.20;;;;;;;16.36;49.44;98592.50;5010364;28;20061;-85
2021/05/21 07:55:20;;;;;;;9.15;2.10;;;;;;;16.16;49.93;98583.88;5010239;28;20065;-86
2021/05/21 07:57:46;;;;;;;10.43;2.17;;;;;;;15.93;50.61;98571.06;5009844;28;20050;-85
2021/05/21 08:00:14;;;;;;;8.40;1.73;;;;;;;15.71;50.58;98565.22;4997117;28;20054;-85
2021/05/21 08:02:42;;;;;;;9.80;2.30;;;;;;;15.46;51.02;98583.50;4992560;28;20058;-85
2021/05/21 08:05:09;;;;;;;13.45;2.35;;;;;;;15.29;51.69;98565.75;4992809;28;20054;-85
2021/05/21 08:07:36;;;;;;;10.35;1.95;;;;;;;15.14;52.19;98582.09;4990935;28;20047;-86
2021/05/21 08:10:05;;;;;;;6.97;1.67;;;;;;;15.01;52.46;98569.19;4991322;28;20054;-86
2021/05/21 08:12:32;;;;;;;8.55;2.08;;;;;;;14.92;52.90;98581.50;4992197;28;20062;-85
2021/05/21 08:14:58;;;;;;;10.00;1.70;;;;;;;14.84;52.78;98578.75;4992074;28;20058;-86
2021/05/21 08:17:25;;;;;;;9.48;2.80;;;;;;;14.74;52.97;98589.34;4993871;28;20492;-86
2021/05/21 08:20:08;;;;;;;9.82;2.25;;;;;;;14.63;53.49;98590.34;5012233;28;20053;-85
2021/05/21 08:22:35;;;;;;;8.07;2.50;;;;;;;14.48;53.49;98584.66;5010487;28;20140;-84
2021/05/21 08:25:05;;;;;;;14.27;2.50;;;;;;;14.31;54.22;98592.34;5011954;28;20570;-85
2021/05/21 08:27:31;;;;;;;10.38;2.10;;;;;;;14.16;54.06;98597.22;5011927;28;20050;-85
2021/05/21 08:29:58;;;;;;;11.68;2.15;;;;;;;14.02;54.88;98600.28;5011847;28;20503;-85
2021/05/21 08:32:25;;;;;;;11.88;2.25;;;;;;;13.86;55.06;98604.28;5010693;28;20054;-85
2021/05/21 08:34:51;;;;;;;14.20;2.75;;;;;;;13.73;55.42;98607.22;5010355;28;20050;-85
2021/05/21 08:37:19;;;;;;;10.85;2.30;;;;;;;13.61;56.04;98610.94;5011894;28;20129;-85
2021/05/21 08:39:47;;;;;;;12.45;2.38;;;;;;;13.51;56.22;98613.56;5010901;28;20053;-84
2021/05/21 08:42:16;;;;;;;6.68;2.08;;;;;;;13.39;57.24;98616.25;5011943;28;20069;-84
2021/05/21 08:44:46;;;;;;;10.50;2.20;;;;;;;13.32;56.88;98607.22;5010300;28;20061;-85
2021/05/21 08:47:14;;;;;;;8.80;1.75;;;;;;;13.23;57.54;98605.38;5006001;28;20045;-84
2021/05/21 08:49:41;;;;;;;10.18;2.63;;;;;;;13.16;57.76;98611.19;4995587;28;20046;-85
2021/05/21 08:52:08;;;;;;;6.95;2.03;;;;;;;13.09;58.00;98610.03;4994528;28;20078;-84
2021/05/21 08:54:35;;;;;;;7.43;2.60;;;;;;;13.05;58.52;98605.16;4994316;28;20050;-85
2021/05/21 08:57:09;;;;;;;12.68;2.33;;;;;;;12.98;59.37;98612.75;4995345;28;20522;-84
2021/05/21 08:59:36;;;;;;;12.07;2.20;;;;;;;12.98;58.55;98607.47;4994690;28;20062;-85
2021/05/21 09:02:06;;;;;;;8.73;2.10;;;;;;;12.96;58.81;98607.59;4994841;28;20551;-85
2021/05/21 09:04:53;;;;;;;9.90;2.15;;;;;;;12.92;58.93;98613.28;4997790;28;20137;-84
2021/05/21 09:07:22;;;;;;;15.80;2.38;;;;;;;12.93;58.70;98613.16;4995430;28;20054;-85
2021/05/21 09:09:50;;;;;;;8.10;1.75;;;;;;;12.92;58.71;98623.84;4996727;28;20054;-84
2021/05/21 09:12:18;;;;;;;10.15;2.00;;;;;;;12.90;59.18;98630.09;4995237;28;20050;-86
2021/05/21 09:15:07;;;;;;;6.95;2.33;;;;;;;12.84;59.31;98628.00;4995145;28;20046;-85
2021/05/21 09:17:34;;;;;;;10.82;1.60;;;;;;;12.88;59.60;98641.75;4994160;28;20061;-84
2021/05/21 09:20:03;;;;;;;6.53;1.63;;;;;;;12.86;60.24;98647.16;4997053;28;20112;-86
2021/05/21 09:23:13;;;;;;;8.40;1.80;;;;;;;12.81;61.61;98653.81;5013567;28;20128;-85
2021/05/21 09:25:49;;;;;;;8.27;1.73;;;;;;;12.77;61.47;98654.06;5013581;28;20137;-85
2021/05/21 09:28:36;;;;;;;5.10;1.58;;;;;;;12.71;61.20;98640.56;5014154;28;20415;-84
2021/05/21 09:31:14;;;;;;;8.48;1.52;;;;;;;12.68;61.01;98632.88;5014159;28;20061;-85
2021/05/21 09:33:51;;;;;;;6.40;1.38;;;;;;;12.64;61.76;98625.22;5014009;28;20065;-86
2021/05/21 09:36:32;;;;;;;6.93;1.60;;;;;;;12.59;61.30;98608.09;5013645;28;20054;-85
2021/05/21 09:39:00;;;;;;;6.78;1.52;;;;;;;12.61;61.54;98612.28;4996954;28;20070;-85
2021/05/21 09:41:51;;;;;;;12.32;2.22;;;;;;;12.64;62.17;98611.19;4995596;28;20053;-85
2021/05/21 09:44:18;;;;;;;6.70;1.50;;;;;;;12.72;62.50;98606.09;4994758;28;20061;-85
2021/05/21 09:46:50;;;;;;;6.43;2.20;;;;;;;12.85;62.68;98602.41;4994556;28;20053;-84
2021/05/21 09:49:37;;;;;;;9.07;2.13;;;;;;;12.96;63.31;98590.91;4994243;28;20073;-85
2021/05/21 09:52:14;;;;;;;6.35;1.75;;;;;;;13.14;63.47;98592.00;4995043;28;20522;-85
2021/05/21 09:54:54;;;;;;;9.88;1.70;;;;;;;13.32;63.57;98590.50;5002951;28;20104;-84
2021/05/21 09:57:34;;;;;;;6.22;1.55;;;;;;;13.50;63.72;98588.09;5013336;28;20046;-85
2021/05/21 10:00:03;;;;;;;7.95;1.63;;;;;;;13.71;63.33;98587.16;5013384;28;20060;-85
2021/05/21 10:02:31;;;;;;;7.38;2.20;;;;;;;13.88;62.41;98590.94;5012833;28;20163;-85
2021/05/21 10:05:00;;;;;;;11.75;2.20;;;;;;;14.03;62.13;98586.06;5012798;28;20057;-86
2021/05/21 10:07:27;;;;;;;6.75;1.83;;;;;;;14.18;62.79;98587.34;5013529;28;20062;-84
2021/05/21 10:09:53;;;;;;;9.00;1.95;;;;;;;14.33;63.00;98579.78;5014067;28;20054;-84
2021/05/21 10:12:21;;;;;;;9.10;2.20;;;;;;;14.50;62.07;98582.69;5012465;28;20081;-86
2021/05/21 10:14:50;;;;;;;10.70;2.22;;;;;;;14.66;62.50;98589.22;5012400;28;20418;-85
2021/05/21 10:17:23;;;;;;;6.72;1.98;;;;;;;14.81;62.03;98584.34;5012483;28;20046;-85
2021/05/21 10:19:53;;;;;;;10.10;2.33;;;;;;;15.02;62.47;98572.69;5012906;28;20062;-86
2021/05/21 10:22:26;;;;;;;10.35;2.40;;;;;;;15.22;63.34;98578.75;5012265;28;20050;-85
2021/05/21 10:24:59;;;;;;;9.93;2.53;;;;;;;15.48;62.46;98583.34;5012401;28;20058;-85
2021/05/21 10:27:29;;;;;;;8.15;2.65;;;;;;;15.71;60.22;98567.00;5012494;28;20050;-85
2021/05/21 10:30:00;;;;;;;10.13;2.13;;;;;;;15.94;60.77;98574.53;4990577;28;20066;-85
2021/05/21 10:32:30;;;;;;;13.07;2.97;;;;;;;16.12;60.03;98566.59;4992966;28;20057;-85
2021/05/21 10:34:59;;;;;;;6.93;2.05;;;;;;;16.25;59.48;98559.06;4993772;28;20252;-85
2021/05/21 10:37:36;;;;;;;12.95;2.10;;;;;;;16.37;58.51;98562.31;4994305;28;20050;-85
2021/05/21 10:40:10;;;;;;;9.90;2.28;;;;;;;16.50;57.65;98563.72;4994083;28;20057;-85
2021/05/21 10:42:37;;;;;;;;;;;;;;;16.61;57.19;98557.31;4993393;28;20057;-85
2021/05/21 10:45:10;;;;;;;6.07;1.65;;;;;;;16.70;55.24;98560.88;4994173;28;19928;-85
2021/05/21 10:47:39;;;;;;;8.40;1.98;;;;;;;16.87;57.87;98557.31;4992642;28;20081;-85
2021/05/21 10:50:14;;;;;;;7.90;2.17;;;;;;;17.15;59.90;98557.13;4993872;28;20443;-85
2021/05/21 10:52:47;;;;;;;12.57;2.25;;;;;;;17.53;56.89;98546.13;4992192;28;20054;-85
2021/05/21 10:55:14;;;;;;;6.18;1.50;;;;;;;17.96;59.95;98545.19;4993184;28;20046;-86
2021/05/21 10:57:42;;;;;;;13.07;2.55;;;;;;;18.38;59.58;98551.38;4994870;28;20046;-85
2021/05/21 11:00:09;;;;;;;8.10;1.98;;;;;;;18.81;56.97;98559.13;4993586;28;20499;-85
2021/05/21 11:02:44;;;;;;;5.93;1.80;;;;;;;19.13;52.05;98576.06;4993402;28;20058;-85
2021/05/21 11:05:36;;;;;;;4.55;1.40;;;;;;;19.27;47.39;98563.00;4992906;28;20062;-86
2021/05/21 11:08:07;;;;;;;5.50;1.50;;;;;;;19.36;50.96;98558.47;4993432;28;20057;-85
2021/05/21 11:10:34;;;;;;;5.10;1.55;;;;;;;19.36;50.97;98569.13;4994801;28;20052;-84
2021/05/21 11:13:11;;;;;;;10.07;2.10;;;;;;;19.27;46.16;98549.66;5012912;28;20056;-85
2021/05/21 11:15:41;;;;;;;5.78;1.85;;;;;;;19.27;49.73;98555.00;5012921;28;20050;-85
2021/05/21 11:18:09;;;;;;;6.25;1.65;;;;;;;19.23;50.34;98551.00;5011208;28;20049;-85
2021/05/21 11:20:55;;;;;;;9.30;2.28;;;;;;;19.06;47.00;98551.06;5012809;28;20056;-85
2021/05/21 11:23:27;;;;;;;7.80;2.00;;;;;;;19.02;49.45;98547.91;5013052;28;20056;-85
2021/05/21 11:26:01;;;;;;;11.40;2.55;;;;;;;18.86;46.30;98548.78;5012731;28;20053;-85
2021/05/21 11:28:39;;;;;;;7.30;2.28;;;;;;;18.69;47.99;98549.84;5001080;28;20056;-85
2021/05/21 11:31:15;;;;;;;9.32;2.03;;;;;;;18.56;49.79;98583.16;4991684;28;20168;-85
2021/05/21 11:33:51;;;;;;;12.73;2.00;;;;;;;18.32;50.04;98587.50;4992921;28;20054;-85
2021/05/21 11:36:22;;;;;;;5.78;1.88;;;;;;;18.00;49.86;98575.81;4992878;28;20050;-86
2021/05/21 11:38:50;;;;;;;4.97;1.33;;;;;;;17.64;48.73;98570.78;4991859;28;20089;-85